Latest Weather Observations for Beaudesert AWS

IDQ60901

Issued at 4:21 am EST Sunday 20 August 2017 (issued every 10 minutes, with the page automatically refreshed every 10 minutes)

About weather observations | Map of Brisbane area stations | Latest observations for Brisbane area | Other Formats
Station Details ID: 040983 Name: BEAUDESERT DRUMLEY STREET Lat: -27.97 Lon: 152.99 Height: 47.81 m
Data from the previous 72 hours. | See also: Recent months at Beaudesert AWS
Date/Time
EST
Temp
°C
App
Temp
°C
Dew
Point
°C
Rel
Hum
%
Delta-T
°C
Wind Press
QNH
hPa
Press
MSL
hPa
Rain since
9am
mm
Dir  Spd
km/h
Gust
km/h
Spd
kts
Gust
kts
20/04:00am 0.8 -1.9 -2.1 81 1.0 NW 2 4 1 2 1018.4 1018.4 0.0
20/03:30am 0.6 -1.7 -2.6 79 1.1 CALM 0 0 0 0 1018.2 1018.2 0.0
20/03:00am 1.3 -0.9 -1.8 80 1.1 CALM 0 0 0 0 1018.0 1018.0 0.0
20/02:30am 1.3 -1.0 -2.5 76 1.3 CALM 0 0 0 0 1018.1 1018.1 0.0
20/02:00am 1.7 -0.7 -2.8 72 1.5 CALM 0 0 0 0 1018.2 1018.2 0.0
20/01:30am 3.8 1.5 -2.0 66 2.1 CALM 0 0 0 0 1018.3 1018.3 0.0
20/01:00am 3.1 0.4 -2.8 65 2.0 N 2 2 1 1 1018.5 1018.5 0.0
20/12:30am 4.8 2.6 -1.4 64 2.3 CALM 0 2 0 1 1018.5 1018.5 0.0
20/12:00am 5.0 2.8 -1.4 63 2.3 CALM 0 0 0 0 1018.6 1018.6 0.0
 
Date/Time
EST
Temp
°C
App
Temp
°C
Dew
Point
°C
Rel
Hum
%
Delta-T
°C
Wind Press
QNH
hPa
Press
MSL
hPa
Rain since
9am
mm
Dir  Spd
km/h
Gust
km/h
Spd
kts
Gust
kts
19/11:30pm 6.1 3.8 -2.2 55 3.0 CALM 0 0 0 0 1018.7 1018.7 0.0
19/11:00pm 4.5 2.1 -2.8 59 2.6 CALM 0 2 0 1 1018.8 1018.8 0.0
19/10:30pm 8.1 5.6 -4.0 42 4.3 CALM 0 2 0 1 1018.7 1018.7 0.0
19/10:00pm 8.3 5.4 -4.2 41 4.4 N 2 4 1 2 1018.5 1018.5 0.0
19/09:30pm 9.0 5.5 -6.0 34 5.2 NW 4 7 2 4 1018.2 1018.2 0.0
19/09:00pm 10.0 6.9 -5.9 32 5.6 N 2 6 1 3 1018.2 1018.2 0.0
19/08:30pm 9.4 6.3 -6.0 33 5.3 SW 2 4 1 2 1017.7 1017.7 0.0
19/08:00pm 12.2 7.8 -6.2 27 6.6 SW 9 17 5 9 1017.2 1017.2 0.0
19/07:30pm 12.2 8.2 -7.2 25 6.8 SW 6 9 3 5 1016.9 1016.9 0.0
19/07:00pm 12.3 9.1 -7.7 24 6.9 SW 2 6 1 3 1016.5 1016.5 0.0
19/06:30pm 12.5 8.3 -7.5 24 7.0 SW 7 9 4 5 1016.2 1016.2 0.0
19/06:00pm 14.1 9.5 -7.9 21 7.7 WSW 9 13 5 7 1015.6 1015.6 0.0
19/05:30pm 16.0 10.6 -8.3 18 8.7 SW 13 22 7 12 1015.0 1015.0 0.0
19/05:00pm 17.5 11.4 -7.8 17 9.3 SW 17 26 9 14 1014.4 1014.4 0.0
19/04:30pm 18.4 11.3 -7.8 16 9.7 WSW 22 35 12 19 1013.8 1013.8 0.0
19/04:00pm 18.9 10.3 -8.3 15 10.1 WSW 30 44 16 24 1013.5 1013.5 0.0
19/03:30pm 19.2 10.7 -7.2 16 10.0 WSW 30 48 16 26 1013.2 1013.2 0.0
19/03:07pm 19.6 11.1 -6.9 16 10.2 SW 30 48 16 26 1013.1 1013.1 0.0
19/03:00pm 19.5 10.6 -7.0 16 10.1 SW 32 48 17 26 1013.2 1013.2 0.0
19/02:30pm 19.2 10.2 -5.7 18 9.7 SW 33 54 18 29 1013.2 1013.2 0.0
19/02:10pm 19.3 10.3 -6.3 17 9.9 WSW 33 52 18 28 1013.2 1013.2 0.0
19/02:00pm 19.5 11.5 -6.2 17 10.0 WSW 28 39 15 21 1013.1 1013.1 0.0
19/01:30pm 19.7 11.1 -4.5 19 9.8 SW 32 52 17 28 1013.2 1013.2 0.0
19/01:07pm 19.5 10.9 -4.0 20 9.5 WSW 32 50 17 27 1013.4 1013.4 0.0
19/01:00pm 19.5 12.1 -4.0 20 9.5 WSW 26 39 14 21 1013.5 1013.5 0.0
19/12:30pm 19.5 12.4 -4.0 20 9.5 WSW 24 39 13 21 1013.9 1013.9 0.0
19/12:00pm 18.7 10.9 -4.0 21 9.1 WSW 28 37 15 20 1014.4 1014.4 0.0
19/11:30am 18.3 11.0 -3.2 23 8.8 WSW 26 43 14 23 1015.0 1015.0 0.0
19/11:00am 18.5 11.8 -0.8 27 8.3 WSW 24 41 13 22 1015.5 1015.5 0.0
19/10:30am 17.4 9.6 -3.4 24 8.4 SW 28 41 15 22 1016.1 1016.1 0.0
19/10:02am 17.1 9.5 -2.0 27 7.9 WSW 28 46 15 25 1016.3 1016.3 0.0
19/10:00am 16.8 8.8 -2.3 27 7.8 WSW 30 46 16 25 1016.2 1016.2 0.0
19/09:58am 17.0 9.4 -2.1 27 7.9 WSW 28 46 15 25 1016.2 1016.2 0.0
19/09:30am 16.2 8.9 -2.8 27 7.7 WSW 26 43 14 23 1016.4 1016.4 0.0
19/09:00am 15.5 8.4 -1.5 31 7.0 WSW 26 37 14 20 1016.6 1016.6 0.0
19/08:30am 14.8 8.1 -1.3 33 6.6 WSW 24 37 13 20 1016.8 1016.8 0.0
19/08:00am 13.9 7.5 -1.7 34 6.3 WSW 22 39 12 21 1016.8 1016.8 0.0
19/07:30am 13.1 7.0 -2.0 35 6.0 WSW 20 33 11 18 1016.6 1016.6 0.0
19/07:00am 12.3 6.8 -2.0 37 5.6 W 17 24 9 13 1016.5 1016.5 0.0
19/06:30am 11.1 5.7 -1.0 43 4.8 W 17 22 9 12 1016.2 1016.2 0.0
19/06:00am 12.3 6.2 -2.3 36 5.7 W 20 30 11 16 1016.1 1016.1 0.0
19/05:30am 12.2 7.0 -2.4 36 5.7 W 15 26 8 14 1015.8 1015.8 0.0
19/05:00am 12.1 7.0 -2.1 37 5.6 WSW 15 24 8 13 1015.5 1015.5 0.0
19/04:30am 12.5 6.6 -2.5 35 5.9 WSW 19 26 10 14 1015.5 1015.5 0.0
19/04:00am 12.6 7.1 -2.4 35 5.9 WSW 17 24 9 13 1015.5 1015.5 0.0
19/03:30am 12.6 7.4 -2.4 35 5.9 WSW 15 22 8 12 1015.6 1015.6 0.0
19/03:00am 13.3 8.5 -2.2 34 6.1 WSW 13 20 7 11 1015.5 1015.5 0.0
19/02:30am 13.4 8.7 -1.7 35 6.1 WSW 13 22 7 12 1015.7 1015.7 0.0
19/02:00am 13.7 8.2 -1.9 34 6.2 WSW 17 28 9 15 1015.7 1015.7 0.0
19/01:30am 13.4 9.5 -1.3 36 5.9 WNW 9 17 5 9 1015.9 1015.9 0.0
19/01:00am 13.6 10.6 -1.6 35 6.1 N 4 7 2 4 1016.0 1016.0 0.0
19/12:30am 14.3 11.3 -1.7 33 6.5 W 4 9 2 5 1016.0 1016.0 0.0
19/12:00am 14.7 10.8 -1.4 33 6.6 SW 9 17 5 9 1016.2 1016.2 0.0
 
Date/Time
EST
Temp
°C
App
Temp
°C
Dew
Point
°C
Rel
Hum
%
Delta-T
°C
Wind Press
QNH
hPa
Press
MSL
hPa
Rain since
9am
mm
Dir  Spd
km/h
Gust
km/h
Spd
kts
Gust
kts
18/11:30pm 15.2 11.0 -0.9 33 6.7 WSW 11 19 6 10 1016.2 1016.2 0.0
18/11:00pm 14.2 10.4 -1.0 35 6.2 WSW 9 17 5 9 1016.1 1016.1 0.0
18/10:30pm 14.1 10.8 -1.5 34 6.3 SSE 6 11 3 6 1016.0 1016.0 0.0
18/10:00pm 14.7 11.1 -1.8 32 6.7 ESE 7 11 4 6 1015.9 1015.9 0.0
18/09:30pm 15.4 11.7 -2.5 29 7.2 NE 7 11 4 6 1015.7 1015.7 0.0
18/09:00pm 17.4 11.3 -2.3 26 8.1 WSW 20 37 11 20 1015.5 1015.5 0.0
18/08:30pm 18.1 11.2 -2.8 24 8.6 WSW 24 39 13 21 1015.2 1015.2 0.0
18/08:00pm 16.2 12.6 -1.8 29 7.4 SW 7 11 4 6 1014.9 1014.9 0.0
18/07:30pm 18.2 13.2 -1.1 27 8.2 W 15 30 8 16 1014.4 1014.4 0.0
18/07:00pm 18.1 13.9 -1.2 27 8.2 W 11 19 6 10 1013.9 1013.9 0.0
18/06:30pm 19.4 13.6 -1.7 24 9.0 W 19 30 10 16 1013.4 1013.4 0.0
18/06:00pm 20.0 14.6 -1.7 23 9.3 W 17 30 9 16 1012.9 1012.9 0.0
18/05:30pm 20.3 14.5 -1.5 23 9.4 W 19 28 10 15 1012.4 1012.4 0.0
18/05:00pm 21.6 15.1 -2.3 20 10.3 W 22 35 12 19 1012.0 1012.0 0.0
18/04:30pm 22.5 15.3 -2.2 19 10.7 W 26 35 14 19 1011.5 1011.5 0.0
18/04:00pm 23.2 15.7 -1.7 19 11.0 W 28 43 15 23 1011.1 1011.1 0.0
18/03:30pm 23.7 16.5 -2.0 18 11.3 W 26 39 14 21 1010.7 1010.7 0.0
18/03:00pm 23.9 16.3 -1.8 18 11.4 W 28 46 15 25 1010.6 1010.6 0.0
18/02:30pm 24.2 17.1 -1.6 18 11.5 W 26 43 14 23 1010.8 1010.8 0.0
18/02:00pm 24.0 16.1 -1.8 18 11.4 WNW 30 44 16 24 1010.8 1010.8 0.0
18/01:30pm 24.4 17.2 -2.2 17 11.7 W 26 41 14 22 1011.2 1011.2 0.0
18/01:00pm 24.1 16.9 -2.4 17 11.6 W 26 39 14 21 1011.4 1011.4 0.0
18/12:31pm 24.0 16.1 -1.8 18 11.4 WNW 30 54 16 29 1011.7 1011.7 0.0
18/12:30pm 24.0 16.4 -2.5 17 11.6 WNW 28 44 15 24 1011.7 1011.7 0.0
18/12:00pm 24.0 18.2 -0.3 20 11.1 W 20 37 11 20 1012.2 1012.2 0.0
18/11:30am 24.1 18.5 1.1 22 10.7 W 20 33 11 18 1012.8 1012.8 0.0
18/11:00am 23.2 17.6 -0.3 21 10.6 W 19 30 10 16 1013.3 1013.3 0.0
18/10:30am 22.9 16.7 -0.6 21 10.5 W 22 32 12 17 1013.7 1013.7 0.0
18/10:00am 23.0 16.8 -0.5 21 10.6 WSW 22 37 12 20 1014.0 1014.0 0.0
18/09:41am 22.6 17.4 -0.2 22 10.3 W 17 35 9 19 1014.3 1014.3 0.0
18/09:30am 21.7 19.2 1.4 26 9.4 WSW 4 7 2 4 1014.5 1014.5 0.0
18/09:00am 20.3 17.7 3.1 32 8.1 NW 6 7 3 4 1014.7 1014.7 0.0
18/08:30am 15.8 14.8 7.3 57 4.2 NNW 2 6 1 3 1014.9 1014.9 0.0
18/08:00am 12.7 11.5 6.5 66 3.0 N 2 4 1 2 1014.9 1014.9 0.0
18/07:30am 9.2 8.2 5.4 77 1.7 CALM 0 0 0 0 1014.6 1014.6 0.0
18/07:00am 6.7 5.5 4.5 86 1.0 CALM 0 2 0 1 1014.3 1014.3 0.0
18/06:30am 5.2 3.3 2.7 84 1.0 NE 2 6 1 3 1014.1 1014.1 0.0
18/06:00am 5.6 3.7 2.9 83 1.1 NE 2 6 1 3 1013.9 1013.9 0.0
18/05:30am 5.2 3.2 2.4 82 1.1 NE 2 6 1 3 1013.6 1013.6 0.0
18/05:00am 5.8 4.4 3.8 87 0.8 CALM 0 0 0 0 1013.2 1013.2 0.0
18/04:30am 6.7 5.6 4.9 88 0.8 CALM 0 0 0 0 1012.9 1012.9 0.0
18/04:00am 6.1 4.7 3.3 82 1.2 CALM 0 0 0 0 1012.7 1012.7 0.0
18/03:30am 7.5 6.2 4.3 80 1.4 CALM 0 0 0 0 1012.4 1012.4 0.0
18/03:00am 9.6 7.6 4.2 69 2.4 NNE 4 6 2 3 1012.4 1012.4 0.0
18/02:30am 10.4 8.7 6.0 74 2.0 NE 4 6 2 3 1012.6 1012.6 0.0
18/02:00am 8.9 7.9 5.8 81 1.4 CALM 0 0 0 0 1012.6 1012.6 0.0
18/01:30am 9.4 8.4 5.8 78 1.6 CALM 0 0 0 0 1012.5 1012.5 0.0
18/01:00am 9.6 8.4 4.8 72 2.2 CALM 0 0 0 0 1012.5 1012.5 0.0
18/12:30am 11.9 10.9 5.8 66 2.9 CALM 0 0 0 0 1012.7 1012.7 0.0
18/12:00am 12.8 11.8 5.5 61 3.4 CALM 0 0 0 0 1012.6 1012.6 0.0
 
Date/Time
EST
Temp
°C
App
Temp
°C
Dew
Point
°C
Rel
Hum
%
Delta-T
°C
Wind Press
QNH
hPa
Press
MSL
hPa
Rain since
9am
mm
Dir  Spd
km/h
Gust
km/h
Spd
kts
Gust
kts
17/11:30pm 16.5 15.3 6.6 52 4.9 SSE 2 2 1 1 1012.6 1012.6 0.0
17/11:00pm 17.4 15.7 7.5 52 5.0 ENE 6 6 3 3 1012.6 1012.6 0.0
17/10:30pm 17.2 15.7 7.0 51 5.1 S 4 9 2 5 1012.5 1012.5 0.0
17/10:00pm 17.7 14.9 6.9 49 5.4 SW 11 15 6 8 1012.1 1012.1 0.0
17/09:30pm 18.6 16.1 8.0 50 5.4 WSW 11 15 6 8 1011.9 1011.9 0.0
17/09:00pm 17.2 16.2 8.9 58 4.3 SW 4 7 2 4 1011.9 1011.9 0.0
17/08:30pm 18.7 18.5 10.3 58 4.5 SW 2 4 1 2 1011.7 1011.7 0.0
17/08:00pm 20.3 20.2 9.5 50 5.8 CALM 0 0 0 0 1011.4 1011.4 0.0
17/07:30pm 20.1 19.9 9.1 49 5.8 CALM 0 0 0 0 1011.1 1011.1 0.0
17/07:00pm 21.7 20.8 9.3 45 6.7 SW 4 7 2 4 1010.7 1010.7 0.0
17/06:30pm 22.8 22.3 9.2 42 7.3 SW 2 4 1 2 1010.1 1010.1 0.0
17/06:00pm 24.0 22.5 8.4 37 8.3 SW 6 11 3 6 1009.6 1009.5 0.0
17/05:30pm 25.4 23.3 8.4 34 9.2 WSW 9 13 5 7 1009.1 1009.0 0.0
17/05:00pm 28.1 24.9 8.4 29 10.8 W 15 28 8 15 1008.7 1008.6 0.0
17/04:30pm 29.1 25.1 8.2 27 11.4 WSW 19 32 10 17 1008.4 1008.3 0.0
17/04:00pm 30.0 25.5 8.4 26 11.9 W 22 35 12 19 1007.9 1007.8 0.0
17/03:30pm 30.5 26.2 7.7 24 12.5 W 20 35 11 19 1007.5 1007.4 0.0
17/03:00pm 30.6 26.4 8.3 25 12.3 W 20 35 11 19 1007.5 1007.4 0.0
17/02:30pm 31.1 27.0 8.8 25 12.5 WNW 20 35 11 19 1007.5 1007.4 0.0
17/02:00pm 31.0 27.5 8.7 25 12.5 WNW 17 24 9 13 1007.6 1007.5 0.0
17/01:30pm 31.3 28.2 8.9 25 12.5 WSW 15 32 8 17 1007.9 1007.8 0.0
17/01:18pm 30.3 27.1 11.3 31 11.0 WNW 19 39 10 21 1007.9 1007.8 0.0
17/01:00pm 29.9 29.0 11.4 32 10.7 W 7 11 4 6 1008.2 1008.1 0.0
17/12:30pm 29.6 29.1 12.1 34 10.2 NW 6 11 3 6 1008.6 1008.5 0.0
17/12:00pm 29.1 28.0 12.1 35 9.9 NNW 9 17 5 9 1009.2 1009.1 0.0
17/11:30am 27.9 27.2 11.9 37 9.3 NW 7 15 4 8 1010.1 1010.1 0.0
17/11:00am 26.3 26.0 12.7 43 7.9 WNW 6 9 3 5 1010.9 1010.9 0.0
17/10:30am 25.4 25.2 13.6 48 6.9 NW 7 11 4 6 1011.4 1011.4 0.0
17/10:00am 24.1 24.5 13.6 52 6.1 NW 4 9 2 5 1011.9 1011.9 0.0
17/09:30am 22.5 23.1 13.0 55 5.5 WNW 2 6 1 3 1012.1 1012.1 0.0
17/09:00am 20.2 22.1 15.8 76 2.6 CALM 0 0 0 0 1012.3 1012.3 0.0
17/08:30am 16.7 18.5 15.4 92 0.8 CALM 0 0 0 0 1012.4 1012.4 0.0
17/08:00am 14.1 14.9 13.8 98 0.2 SSE 2 6 1 3 1012.5 1012.5 0.0
17/07:30am 12.3 12.6 12.1 99 0.1 E 2 4 1 2 1012.4 1012.4 0.0
17/07:00am 9.3 9.1 9.0 98 0.1 CALM 0 0 0 0 1012.2 1012.2 0.0
17/06:30am 9.8 9.7 9.3 97 0.2 CALM 0 0 0 0 1011.9 1011.9 0.0
17/06:00am 9.5 9.3 8.9 96 0.3 CALM 0 0 0 0 1011.6 1011.6 0.0
17/05:30am 10.7 10.8 10.2 97 0.3 CALM 0 0 0 0 1011.2 1011.2 0.0
17/05:00am 12.1 12.6 11.6 97 0.3 CALM 0 0 0 0 1011.1 1011.1 0.0
17/04:30am 12.4 13.0 11.9 97 0.3 CALM 0 0 0 0 1011.0 1011.0 0.0

Latest Capital City Observations: Canberra | Sydney | Melbourne | Brisbane | Adelaide | Perth | Hobart | Darwin

Other Formats:

Comma delimited format used in spreadsheet applications
http://www.bom.gov.au/fwo/IDQ60901/IDQ60901.95575.axf

JavaScript Object Notation format (JSON) in row-major order
http://www.bom.gov.au/fwo/IDQ60901/IDQ60901.95575.json